Riverside, Iowa
Current Conditions -  °F | °C
As of 7:52 AM on Friday 24 Oct 2014 (Local Time) from KIOW Reporting Station
Moderate Fog Moderate Fog  
Wind Chill: 44°   Ceiling: 200
Heat Index: 47°   Visibility: 0mi
Dew Point: 47°   Wind: 7mph
Humidity: 100%   Direction: 170°S
Pressure: 30.07"   Gusts: NA
Location:  41.48°N, 91.58°W
Report Text: KIOW 241252Z AUTO 17006KT M1/4SM FG VV002 08/08 A3007 RMK AO2 SLP184 T00830083
Loading
Personal Weather Stations






























Interactive Weather Map
Tropical Storm Tracking
New forecast layout! Learn more

10-Day Weather Forecast

Advertisements
Track Severe Weather on mobile